sensor_id;sensor_type;location;lat;lon;timestamp;temperature;humidity
21316;DHT22;10817;55.820;13.030;2022-12-07T00:01:29;0.90;99.90
21316;DHT22;10817;55.820;13.030;2022-12-07T00:03:58;1.00;99.90
21316;DHT22;10817;55.820;13.030;2022-12-07T00:06:30;1.00;99.90
21316;DHT22;10817;55.820;13.030;2022-12-07T00:08:57;1.10;99.90
21316;DHT22;10817;55.820;13.030;2022-12-07T00:11:26;1.10;99.90
21316;DHT22;10817;55.820;13.030;2022-12-07T00:13:54;1.20;99.90
21316;DHT22;10817;55.820;13.030;2022-12-07T00:16:23;1.20;99.90
21316;DHT22;10817;55.820;13.030;2022-12-07T00:18:50;1.30;99.90
21316;DHT22;10817;55.820;13.030;2022-12-07T00:21:20;1.80;99.90
21316;DHT22;10817;55.820;13.030;2022-12-07T00:23:48;1.60;99.90
21316;DHT22;10817;55.820;13.030;2022-12-07T00:26:17;1.50;99.90
21316;DHT22;10817;55.820;13.030;2022-12-07T00:28:46;1.30;99.90
21316;DHT22;10817;55.820;13.030;2022-12-07T00:31:15;1.20;99.90
21316;DHT22;10817;55.820;13.030;2022-12-07T00:33:42;1.20;99.90
21316;DHT22;10817;55.820;13.030;2022-12-07T00:36:12;1.20;99.90
21316;DHT22;10817;55.820;13.030;2022-12-07T00:38:40;1.20;99.90
21316;DHT22;10817;55.820;13.030;2022-12-07T00:41:10;1.20;99.90
21316;DHT22;10817;55.820;13.030;2022-12-07T00:43:38;1.20;99.90
21316;DHT22;10817;55.820;13.030;2022-12-07T00:46:06;1.20;99.90
21316;DHT22;10817;55.820;13.030;2022-12-07T00:48:34;1.50;99.90
21316;DHT22;10817;55.820;13.030;2022-12-07T00:51:01;1.60;99.90
21316;DHT22;10817;55.820;13.030;2022-12-07T00:53:29;1.60;99.90
21316;DHT22;10817;55.820;13.030;2022-12-07T00:55:57;1.50;99.90
21316;DHT22;10817;55.820;13.030;2022-12-07T00:58:24;1.50;99.90
21316;DHT22;10817;55.820;13.030;2022-12-07T01:00:52;1.60;99.90
21316;DHT22;10817;55.820;13.030;2022-12-07T01:03:20;1.70;99.90
21316;DHT22;10817;55.820;13.030;2022-12-07T01:05:51;1.70;99.90
21316;DHT22;10817;55.820;13.030;2022-12-07T01:08:18;1.60;99.90
21316;DHT22;10817;55.820;13.030;2022-12-07T01:10:45;1.70;99.90
21316;DHT22;10817;55.820;13.030;2022-12-07T01:13:12;1.80;99.90
21316;DHT22;10817;55.820;13.030;2022-12-07T01:15:39;1.70;99.90
21316;DHT22;10817;55.820;13.030;2022-12-07T01:18:06;1.60;99.90
21316;DHT22;10817;55.820;13.030;2022-12-07T01:20:34;1.50;99.90
21316;DHT22;10817;55.820;13.030;2022-12-07T01:23:01;1.50;99.90
21316;DHT22;10817;55.820;13.030;2022-12-07T01:25:28;1.40;99.90
21316;DHT22;10817;55.820;13.030;2022-12-07T01:27:55;1.40;99.90
21316;DHT22;10817;55.820;13.030;2022-12-07T01:30:22;1.30;99.90
21316;DHT22;10817;55.820;13.030;2022-12-07T01:32:48;1.20;99.90
21316;DHT22;10817;55.820;13.030;2022-12-07T01:35:15;1.10;99.90
21316;DHT22;10817;55.820;13.030;2022-12-07T01:37:43;1.10;99.90
21316;DHT22;10817;55.820;13.030;2022-12-07T01:40:11;1.10;99.90
21316;DHT22;10817;55.820;13.030;2022-12-07T01:42:38;1.20;99.90
21316;DHT22;10817;55.820;13.030;2022-12-07T01:48:10;1.30;99.90
21316;DHT22;10817;55.820;13.030;2022-12-07T01:50:38;1.30;99.90
21316;DHT22;10817;55.820;13.030;2022-12-07T01:53:09;1.40;99.90
21316;DHT22;10817;55.820;13.030;2022-12-07T01:55:40;1.40;99.90
21316;DHT22;10817;55.820;13.030;2022-12-07T01:58:09;1.30;99.90
21316;DHT22;10817;55.820;13.030;2022-12-07T02:00:41;1.50;99.90
21316;DHT22;10817;55.820;13.030;2022-12-07T02:03:11;1.30;99.90
21316;DHT22;10817;55.820;13.030;2022-12-07T02:05:41;1.20;99.90
21316;DHT22;10817;55.820;13.030;2022-12-07T02:08:11;1.10;99.90
21316;DHT22;10817;55.820;13.030;2022-12-07T02:10:39;1.20;99.90
21316;DHT22;10817;55.820;13.030;2022-12-07T02:13:09;1.30;99.90
21316;DHT22;10817;55.820;13.030;2022-12-07T02:15:47;1.20;99.90
21316;DHT22;10817;55.820;13.030;2022-12-07T02:18:22;1.10;99.90
21316;DHT22;10817;55.820;13.030;2022-12-07T02:20:56;1.10;99.90
21316;DHT22;10817;55.820;13.030;2022-12-07T02:26:49;1.10;99.90
21316;DHT22;10817;55.820;13.030;2022-12-07T02:29:24;0.90;99.90
21316;DHT22;10817;55.820;13.030;2022-12-07T02:31:58;0.80;99.90
21316;DHT22;10817;55.820;13.030;2022-12-07T02:34:32;0.70;99.90
21316;DHT22;10817;55.820;13.030;2022-12-07T02:37:06;0.70;99.90
21316;DHT22;10817;55.820;13.030;2022-12-07T02:39:41;0.70;99.90
21316;DHT22;10817;55.820;13.030;2022-12-07T02:42:14;0.60;99.90
21316;DHT22;10817;55.820;13.030;2022-12-07T02:44:43;1.00;99.90
21316;DHT22;10817;55.820;13.030;2022-12-07T02:47:15;1.10;99.90
21316;DHT22;10817;55.820;13.030;2022-12-07T02:49:43;0.90;99.90
21316;DHT22;10817;55.820;13.030;2022-12-07T02:52:10;0.80;99.90
21316;DHT22;10817;55.820;13.030;2022-12-07T02:54:37;0.70;99.90
21316;DHT22;10817;55.820;13.030;2022-12-07T02:57:14;0.60;99.90
21316;DHT22;10817;55.820;13.030;2022-12-07T02:59:58;0.70;99.90
21316;DHT22;10817;55.820;13.030;2022-12-07T03:02:35;0.70;99.90
21316;DHT22;10817;55.820;13.030;2022-12-07T03:05:15;0.60;99.90
21316;DHT22;10817;55.820;13.030;2022-12-07T03:07:49;0.50;99.90
21316;DHT22;10817;55.820;13.030;2022-12-07T03:10:23;0.50;99.90
21316;DHT22;10817;55.820;13.030;2022-12-07T03:13:00;0.50;99.90
21316;DHT22;10817;55.820;13.030;2022-12-07T03:15:33;0.60;99.90
21316;DHT22;10817;55.820;13.030;2022-12-07T03:18:03;0.70;99.90
21316;DHT22;10817;55.820;13.030;2022-12-07T03:20:32;0.60;99.90
21316;DHT22;10817;55.820;13.030;2022-12-07T03:23:03;0.60;99.90
21316;DHT22;10817;55.820;13.030;2022-12-07T03:25:31;0.60;99.90
21316;DHT22;10817;55.820;13.030;2022-12-07T03:28:02;0.60;99.90
21316;DHT22;10817;55.820;13.030;2022-12-07T03:30:37;0.50;99.90
21316;DHT22;10817;55.820;13.030;2022-12-07T03:33:08;0.50;99.90
21316;DHT22;10817;55.820;13.030;2022-12-07T03:35:39;0.50;99.90
21316;DHT22;10817;55.820;13.030;2022-12-07T03:38:14;0.30;99.90
21316;DHT22;10817;55.820;13.030;2022-12-07T03:40:46;0.10;99.90
21316;DHT22;10817;55.820;13.030;2022-12-07T03:43:16;0.00;99.90
21316;DHT22;10817;55.820;13.030;2022-12-07T03:45:53;-0.10;99.90
21316;DHT22;10817;55.820;13.030;2022-12-07T03:48:25;-0.20;99.90
21316;DHT22;10817;55.820;13.030;2022-12-07T03:51:01;-0.30;99.90
21316;DHT22;10817;55.820;13.030;2022-12-07T03:53:36;-0.30;99.90
21316;DHT22;10817;55.820;13.030;2022-12-07T03:56:04;-0.20;99.90
21316;DHT22;10817;55.820;13.030;2022-12-07T03:58:32;0.00;99.90
21316;DHT22;10817;55.820;13.030;2022-12-07T04:01:01;0.00;99.90
21316;DHT22;10817;55.820;13.030;2022-12-07T04:03:27;-0.10;99.90
21316;DHT22;10817;55.820;13.030;2022-12-07T04:05:54;-0.20;99.90
21316;DHT22;10817;55.820;13.030;2022-12-07T04:08:21;-0.20;99.90
21316;DHT22;10817;55.820;13.030;2022-12-07T04:10:48;-0.20;99.90
21316;DHT22;10817;55.820;13.030;2022-12-07T04:13:15;-0.30;99.90
21316;DHT22;10817;55.820;13.030;2022-12-07T04:15:42;-0.30;99.90
21316;DHT22;10817;55.820;13.030;2022-12-07T04:18:10;-0.20;99.90
21316;DHT22;10817;55.820;13.030;2022-12-07T04:20:36;-0.30;99.90
21316;DHT22;10817;55.820;13.030;2022-12-07T04:23:03;-0.20;99.90
21316;DHT22;10817;55.820;13.030;2022-12-07T04:25:30;0.10;99.90
21316;DHT22;10817;55.820;13.030;2022-12-07T04:27:57;0.10;99.90
21316;DHT22;10817;55.820;13.030;2022-12-07T04:30:23;-0.30;99.90
21316;DHT22;10817;55.820;13.030;2022-12-07T04:32:50;-0.60;99.90
21316;DHT22;10817;55.820;13.030;2022-12-07T04:35:18;-0.80;99.90
21316;DHT22;10817;55.820;13.030;2022-12-07T04:37:45;-1.00;99.90
21316;DHT22;10817;55.820;13.030;2022-12-07T04:40:12;-1.10;99.90
21316;DHT22;10817;55.820;13.030;2022-12-07T04:42:40;-1.20;99.90
21316;DHT22;10817;55.820;13.030;2022-12-07T04:45:07;-1.30;99.90
21316;DHT22;10817;55.820;13.030;2022-12-07T04:47:34;-1.30;99.90
21316;DHT22;10817;55.820;13.030;2022-12-07T04:50:02;-1.30;99.90
21316;DHT22;10817;55.820;13.030;2022-12-07T04:52:30;-1.40;99.90
21316;DHT22;10817;55.820;13.030;2022-12-07T04:54:57;-1.40;99.90
21316;DHT22;10817;55.820;13.030;2022-12-07T04:57:23;-1.40;99.90
21316;DHT22;10817;55.820;13.030;2022-12-07T04:59:50;-1.50;99.90
21316;DHT22;10817;55.820;13.030;2022-12-07T05:02:17;-1.50;99.90
21316;DHT22;10817;55.820;13.030;2022-12-07T05:04:44;-1.60;99.90
21316;DHT22;10817;55.820;13.030;2022-12-07T05:07:11;-1.70;99.90
21316;DHT22;10817;55.820;13.030;2022-12-07T05:09:39;-1.80;99.90
21316;DHT22;10817;55.820;13.030;2022-12-07T05:12:05;-1.80;99.90
21316;DHT22;10817;55.820;13.030;2022-12-07T05:14:32;-1.80;99.90
21316;DHT22;10817;55.820;13.030;2022-12-07T05:16:59;-1.90;99.90
21316;DHT22;10817;55.820;13.030;2022-12-07T05:19:26;-1.90;99.90
21316;DHT22;10817;55.820;13.030;2022-12-07T05:21:52;-1.90;99.90
21316;DHT22;10817;55.820;13.030;2022-12-07T05:24:19;0.60;99.90
21316;DHT22;10817;55.820;13.030;2022-12-07T05:26:48;-1.40;99.90
21316;DHT22;10817;55.820;13.030;2022-12-07T05:29:16;-1.70;99.90
21316;DHT22;10817;55.820;13.030;2022-12-07T05:31:43;-1.70;99.90
21316;DHT22;10817;55.820;13.030;2022-12-07T05:34:10;-1.70;99.90
21316;DHT22;10817;55.820;13.030;2022-12-07T05:36:37;-1.80;99.90
21316;DHT22;10817;55.820;13.030;2022-12-07T05:39:04;-1.80;99.90
21316;DHT22;10817;55.820;13.030;2022-12-07T05:41:31;-1.40;99.90
21316;DHT22;10817;55.820;13.030;2022-12-07T05:44:17;-1.30;99.90
21316;DHT22;10817;55.820;13.030;2022-12-07T05:46:44;-1.10;99.90
21316;DHT22;10817;55.820;13.030;2022-12-07T05:49:11;-1.10;99.90
21316;DHT22;10817;55.820;13.030;2022-12-07T05:51:37;-1.20;99.90
21316;DHT22;10817;55.820;13.030;2022-12-07T05:54:04;-1.30;99.90
21316;DHT22;10817;55.820;13.030;2022-12-07T05:56:32;-1.10;99.90
21316;DHT22;10817;55.820;13.030;2022-12-07T05:59:00;-1.30;99.90
21316;DHT22;10817;55.820;13.030;2022-12-07T06:01:48;-1.50;99.90
21316;DHT22;10817;55.820;13.030;2022-12-07T06:04:15;-1.60;99.90
21316;DHT22;10817;55.820;13.030;2022-12-07T06:06:42;-1.70;99.90
21316;DHT22;10817;55.820;13.030;2022-12-07T06:09:08;-1.80;99.90
21316;DHT22;10817;55.820;13.030;2022-12-07T06:11:35;-1.50;99.90
21316;DHT22;10817;55.820;13.030;2022-12-07T06:14:19;-1.30;99.90
21316;DHT22;10817;55.820;13.030;2022-12-07T06:16:48;-1.20;99.90
21316;DHT22;10817;55.820;13.030;2022-12-07T06:19:14;-1.20;99.90
21316;DHT22;10817;55.820;13.030;2022-12-07T06:21:41;-1.10;99.90
21316;DHT22;10817;55.820;13.030;2022-12-07T06:24:10;-1.20;99.90
21316;DHT22;10817;55.820;13.030;2022-12-07T06:26:38;-1.10;99.90
21316;DHT22;10817;55.820;13.030;2022-12-07T06:29:05;-1.10;99.90
21316;DHT22;10817;55.820;13.030;2022-12-07T06:31:31;-1.30;99.90
21316;DHT22;10817;55.820;13.030;2022-12-07T06:34:00;-1.30;99.90
21316;DHT22;10817;55.820;13.030;2022-12-07T06:36:27;-1.40;99.90
21316;DHT22;10817;55.820;13.030;2022-12-07T06:38:56;-1.50;99.90
21316;DHT22;10817;55.820;13.030;2022-12-07T06:41:23;-1.60;99.90
21316;DHT22;10817;55.820;13.030;2022-12-07T06:43:50;-1.80;99.90
21316;DHT22;10817;55.820;13.030;2022-12-07T06:46:17;-1.80;99.90
21316;DHT22;10817;55.820;13.030;2022-12-07T06:48:44;-1.80;99.90
21316;DHT22;10817;55.820;13.030;2022-12-07T06:51:13;-1.80;99.90
21316;DHT22;10817;55.820;13.030;2022-12-07T06:53:39;-1.80;99.90
21316;DHT22;10817;55.820;13.030;2022-12-07T06:56:07;-1.60;99.90
21316;DHT22;10817;55.820;13.030;2022-12-07T06:58:34;-1.50;99.90
21316;DHT22;10817;55.820;13.030;2022-12-07T07:01:00;-1.50;99.90
21316;DHT22;10817;55.820;13.030;2022-12-07T07:03:28;-1.50;99.90
21316;DHT22;10817;55.820;13.030;2022-12-07T07:05:55;-1.40;99.90
21316;DHT22;10817;55.820;13.030;2022-12-07T07:08:23;-1.30;99.90
21316;DHT22;10817;55.820;13.030;2022-12-07T07:10:50;-1.20;99.90
21316;DHT22;10817;55.820;13.030;2022-12-07T07:13:17;-1.20;99.90
21316;DHT22;10817;55.820;13.030;2022-12-07T07:15:44;-1.20;99.90
21316;DHT22;10817;55.820;13.030;2022-12-07T07:18:11;-1.30;99.90
21316;DHT22;10817;55.820;13.030;2022-12-07T07:20:38;-1.20;99.90
21316;DHT22;10817;55.820;13.030;2022-12-07T07:23:05;-1.10;99.90
21316;DHT22;10817;55.820;13.030;2022-12-07T07:25:34;-0.80;99.90
21316;DHT22;10817;55.820;13.030;2022-12-07T07:28:01;-0.80;99.90
21316;DHT22;10817;55.820;13.030;2022-12-07T07:30:28;-0.90;99.90
21316;DHT22;10817;55.820;13.030;2022-12-07T07:32:56;-0.90;99.90
21316;DHT22;10817;55.820;13.030;2022-12-07T07:35:23;-0.90;99.90
21316;DHT22;10817;55.820;13.030;2022-12-07T07:37:50;-0.90;99.90
21316;DHT22;10817;55.820;13.030;2022-12-07T07:40:17;-0.80;99.90
21316;DHT22;10817;55.820;13.030;2022-12-07T07:42:47;-0.70;99.90
21316;DHT22;10817;55.820;13.030;2022-12-07T07:45:13;-0.80;99.90
21316;DHT22;10817;55.820;13.030;2022-12-07T07:47:40;-0.70;99.90
21316;DHT22;10817;55.820;13.030;2022-12-07T07:50:08;-0.80;99.90
21316;DHT22;10817;55.820;13.030;2022-12-07T07:52:35;-1.00;99.90
21316;DHT22;10817;55.820;13.030;2022-12-07T07:55:02;-0.90;99.90
21316;DHT22;10817;55.820;13.030;2022-12-07T07:57:29;-0.90;99.90
21316;DHT22;10817;55.820;13.030;2022-12-07T07:59:57;-0.90;99.90
21316;DHT22;10817;55.820;13.030;2022-12-07T08:02:24;-0.90;99.90
21316;DHT22;10817;55.820;13.030;2022-12-07T08:04:50;-1.00;99.90
21316;DHT22;10817;55.820;13.030;2022-12-07T08:07:17;-1.10;99.90
21316;DHT22;10817;55.820;13.030;2022-12-07T08:09:44;-1.20;99.90
21316;DHT22;10817;55.820;13.030;2022-12-07T08:12:11;-1.30;99.90
21316;DHT22;10817;55.820;13.030;2022-12-07T08:14:37;-1.30;99.90
21316;DHT22;10817;55.820;13.030;2022-12-07T08:17:06;-1.30;99.90
21316;DHT22;10817;55.820;13.030;2022-12-07T08:19:33;-1.30;99.90
21316;DHT22;10817;55.820;13.030;2022-12-07T08:22:00;-1.30;99.90
21316;DHT22;10817;55.820;13.030;2022-12-07T08:24:26;-1.10;99.90
21316;DHT22;10817;55.820;13.030;2022-12-07T08:26:53;-1.00;99.90
21316;DHT22;10817;55.820;13.030;2022-12-07T08:29:20;-0.90;99.90
21316;DHT22;10817;55.820;13.030;2022-12-07T08:31:47;-0.90;99.90
21316;DHT22;10817;55.820;13.030;2022-12-07T08:34:15;-0.80;99.90
21316;DHT22;10817;55.820;13.030;2022-12-07T08:36:42;-0.80;99.90
21316;DHT22;10817;55.820;13.030;2022-12-07T08:39:09;-0.90;99.90
21316;DHT22;10817;55.820;13.030;2022-12-07T08:41:36;-0.90;99.90
21316;DHT22;10817;55.820;13.030;2022-12-07T08:44:03;-0.80;99.90
21316;DHT22;10817;55.820;13.030;2022-12-07T08:46:32;-0.90;99.90
21316;DHT22;10817;55.820;13.030;2022-12-07T08:49:05;-0.80;99.90
21316;DHT22;10817;55.820;13.030;2022-12-07T08:51:36;-0.70;99.90
21316;DHT22;10817;55.820;13.030;2022-12-07T08:54:05;-0.60;99.90
21316;DHT22;10817;55.820;13.030;2022-12-07T08:56:33;-0.50;99.90
21316;DHT22;10817;55.820;13.030;2022-12-07T08:59:02;-0.30;99.90
21316;DHT22;10817;55.820;13.030;2022-12-07T09:01:29;-0.20;99.90
21316;DHT22;10817;55.820;13.030;2022-12-07T09:03:56;-0.10;99.90
21316;DHT22;10817;55.820;13.030;2022-12-07T09:06:23;0.10;99.90
21316;DHT22;10817;55.820;13.030;2022-12-07T09:08:54;0.40;99.90
21316;DHT22;10817;55.820;13.030;2022-12-07T09:11:22;0.70;99.90
21316;DHT22;10817;55.820;13.030;2022-12-07T09:13:49;0.50;99.90
21316;DHT22;10817;55.820;13.030;2022-12-07T09:16:16;0.40;99.90
21316;DHT22;10817;55.820;13.030;2022-12-07T09:18:42;0.30;99.90
21316;DHT22;10817;55.820;13.030;2022-12-07T09:21:09;0.30;99.90
21316;DHT22;10817;55.820;13.030;2022-12-07T09:23:36;0.30;99.90
21316;DHT22;10817;55.820;13.030;2022-12-07T09:26:05;0.40;99.90
21316;DHT22;10817;55.820;13.030;2022-12-07T09:28:31;0.40;99.90
21316;DHT22;10817;55.820;13.030;2022-12-07T09:30:58;0.30;99.90
21316;DHT22;10817;55.820;13.030;2022-12-07T09:33:25;0.40;99.90
21316;DHT22;10817;55.820;13.030;2022-12-07T09:35:52;0.40;99.90
21316;DHT22;10817;55.820;13.030;2022-12-07T09:38:20;0.30;99.90
21316;DHT22;10817;55.820;13.030;2022-12-07T09:40:47;0.40;99.90
21316;DHT22;10817;55.820;13.030;2022-12-07T09:43:18;0.40;99.90
21316;DHT22;10817;55.820;13.030;2022-12-07T09:45:48;0.40;99.90
21316;DHT22;10817;55.820;13.030;2022-12-07T09:48:19;0.50;99.90
21316;DHT22;10817;55.820;13.030;2022-12-07T09:50:47;0.40;99.90
21316;DHT22;10817;55.820;13.030;2022-12-07T09:53:19;0.40;99.90
21316;DHT22;10817;55.820;13.030;2022-12-07T09:55:47;0.30;99.90
21316;DHT22;10817;55.820;13.030;2022-12-07T09:58:20;0.30;99.90
21316;DHT22;10817;55.820;13.030;2022-12-07T10:00:48;0.40;99.90
21316;DHT22;10817;55.820;13.030;2022-12-07T10:03:15;0.20;99.90
21316;DHT22;10817;55.820;13.030;2022-12-07T10:05:45;0.20;99.90
21316;DHT22;10817;55.820;13.030;2022-12-07T10:08:13;0.20;99.90
21316;DHT22;10817;55.820;13.030;2022-12-07T10:10:41;0.10;99.90
21316;DHT22;10817;55.820;13.030;2022-12-07T10:13:09;0.00;99.90
21316;DHT22;10817;55.820;13.030;2022-12-07T10:15:46;0.00;99.90
21316;DHT22;10817;55.820;13.030;2022-12-07T10:18:26;0.00;99.90
21316;DHT22;10817;55.820;13.030;2022-12-07T10:21:08;0.10;99.90
21316;DHT22;10817;55.820;13.030;2022-12-07T10:23:38;0.20;99.90
21316;DHT22;10817;55.820;13.030;2022-12-07T10:26:21;0.30;99.90
21316;DHT22;10817;55.820;13.030;2022-12-07T10:28:51;0.50;99.90
21316;DHT22;10817;55.820;13.030;2022-12-07T10:31:22;0.40;99.90
21316;DHT22;10817;55.820;13.030;2022-12-07T10:33:51;0.40;99.90
21316;DHT22;10817;55.820;13.030;2022-12-07T10:36:21;0.40;99.90
21316;DHT22;10817;55.820;13.030;2022-12-07T10:38:50;0.50;99.90
21316;DHT22;10817;55.820;13.030;2022-12-07T10:41:17;0.70;99.90
21316;DHT22;10817;55.820;13.030;2022-12-07T10:43:53;0.90;99.90
21316;DHT22;10817;55.820;13.030;2022-12-07T10:46:37;1.00;99.90
21316;DHT22;10817;55.820;13.030;2022-12-07T10:52:16;0.80;99.90
21316;DHT22;10817;55.820;13.030;2022-12-07T10:54:52;0.90;99.90
21316;DHT22;10817;55.820;13.030;2022-12-07T10:57:31;0.80;99.90
21316;DHT22;10817;55.820;13.030;2022-12-07T11:00:04;0.80;99.90
21316;DHT22;10817;55.820;13.030;2022-12-07T11:05:39;1.10;99.90
21316;DHT22;10817;55.820;13.030;2022-12-07T11:08:15;1.10;99.90
21316;DHT22;10817;55.820;13.030;2022-12-07T11:10:49;0.70;99.90
21316;DHT22;10817;55.820;13.030;2022-12-07T11:13:24;0.60;99.90
21316;DHT22;10817;55.820;13.030;2022-12-07T11:21:54;-0.60;99.90
21316;DHT22;10817;55.820;13.030;2022-12-07T11:24:26;0.50;99.90
21316;DHT22;10817;55.820;13.030;2022-12-07T11:27:10;0.40;99.90
21316;DHT22;10817;55.820;13.030;2022-12-07T11:29:49;0.30;99.90
21316;DHT22;10817;55.820;13.030;2022-12-07T11:32:22;0.30;99.90
21316;DHT22;10817;55.820;13.030;2022-12-07T11:34:58;0.30;99.90
21316;DHT22;10817;55.820;13.030;2022-12-07T11:37:32;0.50;99.90
21316;DHT22;10817;55.820;13.030;2022-12-07T11:40:02;0.50;99.90
21316;DHT22;10817;55.820;13.030;2022-12-07T11:42:33;0.50;99.90
21316;DHT22;10817;55.820;13.030;2022-12-07T11:45:15;-1.10;99.90
21316;DHT22;10817;55.820;13.030;2022-12-07T11:47:47;0.60;99.90
21316;DHT22;10817;55.820;13.030;2022-12-07T11:50:24;0.40;99.90
21316;DHT22;10817;55.820;13.030;2022-12-07T11:52:57;0.40;99.90
21316;DHT22;10817;55.820;13.030;2022-12-07T11:55:29;0.40;99.90
21316;DHT22;10817;55.820;13.030;2022-12-07T11:58:03;0.30;99.90
21316;DHT22;10817;55.820;13.030;2022-12-07T12:00:31;0.40;99.90
21316;DHT22;10817;55.820;13.030;2022-12-07T12:03:02;0.30;99.90
21316;DHT22;10817;55.820;13.030;2022-12-07T12:05:30;0.40;99.90
21316;DHT22;10817;55.820;13.030;2022-12-07T12:08:05;0.30;99.90
21316;DHT22;10817;55.820;13.030;2022-12-07T12:10:45;0.30;99.90
21316;DHT22;10817;55.820;13.030;2022-12-07T12:13:55;0.30;99.90
21316;DHT22;10817;55.820;13.030;2022-12-07T12:16:50;0.20;99.90
21316;DHT22;10817;55.820;13.030;2022-12-07T12:19:33;0.20;99.90
21316;DHT22;10817;55.820;13.030;2022-12-07T12:22:06;0.20;99.90
21316;DHT22;10817;55.820;13.030;2022-12-07T12:24:37;0.20;99.90
21316;DHT22;10817;55.820;13.030;2022-12-07T12:27:09;0.20;99.90
21316;DHT22;10817;55.820;13.030;2022-12-07T12:29:39;0.00;99.90
21316;DHT22;10817;55.820;13.030;2022-12-07T12:32:13;0.00;99.90
21316;DHT22;10817;55.820;13.030;2022-12-07T12:34:51;0.00;99.90
21316;DHT22;10817;55.820;13.030;2022-12-07T12:37:43;0.00;99.90
21316;DHT22;10817;55.820;13.030;2022-12-07T12:40:43;0.10;99.90
21316;DHT22;10817;55.820;13.030;2022-12-07T12:46:48;0.20;99.90
21316;DHT22;10817;55.820;13.030;2022-12-07T12:49:37;0.10;99.90
21316;DHT22;10817;55.820;13.030;2022-12-07T12:55:19;0.10;99.90
21316;DHT22;10817;55.820;13.030;2022-12-07T12:58:25;0.00;99.90
21316;DHT22;10817;55.820;13.030;2022-12-07T13:03:55;-0.20;99.90
21316;DHT22;10817;55.820;13.030;2022-12-07T13:06:34;-0.20;99.90
21316;DHT22;10817;55.820;13.030;2022-12-07T13:09:03;-0.20;99.90
21316;DHT22;10817;55.820;13.030;2022-12-07T13:11:34;-0.20;99.90
21316;DHT22;10817;55.820;13.030;2022-12-07T13:14:51;-0.30;99.90
21316;DHT22;10817;55.820;13.030;2022-12-07T13:20:49;-0.40;99.90
21316;DHT22;10817;55.820;13.030;2022-12-07T13:23:25;-0.40;99.90
21316;DHT22;10817;55.820;13.030;2022-12-07T13:26:12;-0.40;99.90
21316;DHT22;10817;55.820;13.030;2022-12-07T13:28:42;-0.40;99.90
21316;DHT22;10817;55.820;13.030;2022-12-07T13:31:17;-0.40;99.90
21316;DHT22;10817;55.820;13.030;2022-12-07T13:33:46;-0.40;99.90
21316;DHT22;10817;55.820;13.030;2022-12-07T13:36:22;-0.40;99.90
21316;DHT22;10817;55.820;13.030;2022-12-07T13:38:55;-0.50;99.90
21316;DHT22;10817;55.820;13.030;2022-12-07T13:41:23;-0.60;99.90
21316;DHT22;10817;55.820;13.030;2022-12-07T13:43:53;-0.60;99.90
21316;DHT22;10817;55.820;13.030;2022-12-07T13:46:25;-0.60;99.90
21316;DHT22;10817;55.820;13.030;2022-12-07T13:48:55;-0.60;99.90
21316;DHT22;10817;55.820;13.030;2022-12-07T13:51:24;-0.70;99.90
21316;DHT22;10817;55.820;13.030;2022-12-07T13:53:53;-0.70;99.90
21316;DHT22;10817;55.820;13.030;2022-12-07T13:56:22;-0.70;99.90
21316;DHT22;10817;55.820;13.030;2022-12-07T13:58:50;-0.80;99.90
21316;DHT22;10817;55.820;13.030;2022-12-07T14:01:17;-0.80;99.90
21316;DHT22;10817;55.820;13.030;2022-12-07T14:03:45;-0.90;99.90
21316;DHT22;10817;55.820;13.030;2022-12-07T14:06:22;-0.80;99.90
21316;DHT22;10817;55.820;13.030;2022-12-07T14:09:07;-0.70;99.90
21316;DHT22;10817;55.820;13.030;2022-12-07T14:11:34;-0.70;99.90
21316;DHT22;10817;55.820;13.030;2022-12-07T14:14:02;-0.70;99.90
21316;DHT22;10817;55.820;13.030;2022-12-07T14:16:31;-0.80;99.90
21316;DHT22;10817;55.820;13.030;2022-12-07T14:19:02;-0.90;99.90
21316;DHT22;10817;55.820;13.030;2022-12-07T14:21:30;-1.00;99.90
21316;DHT22;10817;55.820;13.030;2022-12-07T14:24:16;-1.00;99.90
21316;DHT22;10817;55.820;13.030;2022-12-07T14:26:44;-1.00;99.90
21316;DHT22;10817;55.820;13.030;2022-12-07T14:29:32;-1.00;99.90
21316;DHT22;10817;55.820;13.030;2022-12-07T14:32:17;-1.00;99.90
21316;DHT22;10817;55.820;13.030;2022-12-07T14:34:55;-1.00;99.90
21316;DHT22;10817;55.820;13.030;2022-12-07T14:37:23;-1.00;99.90
21316;DHT22;10817;55.820;13.030;2022-12-07T14:39:49;-1.00;99.90
21316;DHT22;10817;55.820;13.030;2022-12-07T14:42:17;0.20;99.90
21316;DHT22;10817;55.820;13.030;2022-12-07T14:44:43;-1.10;99.90
21316;DHT22;10817;55.820;13.030;2022-12-07T14:47:11;-1.00;99.90
21316;DHT22;10817;55.820;13.030;2022-12-07T14:49:38;-1.00;99.90
21316;DHT22;10817;55.820;13.030;2022-12-07T14:52:12;-1.00;99.90
21316;DHT22;10817;55.820;13.030;2022-12-07T14:54:41;-1.00;99.90
21316;DHT22;10817;55.820;13.030;2022-12-07T14:57:09;-1.00;99.90
21316;DHT22;10817;55.820;13.030;2022-12-07T14:59:36;-0.90;99.90
21316;DHT22;10817;55.820;13.030;2022-12-07T15:02:03;-0.80;99.90
21316;DHT22;10817;55.820;13.030;2022-12-07T15:04:29;-0.80;99.90
21316;DHT22;10817;55.820;13.030;2022-12-07T15:06:56;-0.80;99.90
21316;DHT22;10817;55.820;13.030;2022-12-07T15:09:25;-0.90;99.90
21316;DHT22;10817;55.820;13.030;2022-12-07T15:11:52;-0.80;99.90
21316;DHT22;10817;55.820;13.030;2022-12-07T15:14:18;-0.90;99.90
21316;DHT22;10817;55.820;13.030;2022-12-07T15:16:45;-0.90;99.90
21316;DHT22;10817;55.820;13.030;2022-12-07T15:19:13;-0.90;99.90
21316;DHT22;10817;55.820;13.030;2022-12-07T15:21:41;-0.90;99.90
21316;DHT22;10817;55.820;13.030;2022-12-07T15:24:09;-0.90;99.90
21316;DHT22;10817;55.820;13.030;2022-12-07T15:26:40;-0.80;99.90
21316;DHT22;10817;55.820;13.030;2022-12-07T15:29:07;-0.80;99.90
21316;DHT22;10817;55.820;13.030;2022-12-07T15:31:35;-0.80;99.90
21316;DHT22;10817;55.820;13.030;2022-12-07T15:34:02;-0.80;99.90
21316;DHT22;10817;55.820;13.030;2022-12-07T15:36:31;-0.70;99.90
21316;DHT22;10817;55.820;13.030;2022-12-07T15:38:58;-0.70;99.90
21316;DHT22;10817;55.820;13.030;2022-12-07T15:41:25;-0.70;99.90
21316;DHT22;10817;55.820;13.030;2022-12-07T15:43:54;-0.60;99.90
21316;DHT22;10817;55.820;13.030;2022-12-07T15:46:39;-0.70;99.90
21316;DHT22;10817;55.820;13.030;2022-12-07T15:49:11;-0.70;99.90
21316;DHT22;10817;55.820;13.030;2022-12-07T15:51:40;-0.70;99.90
21316;DHT22;10817;55.820;13.030;2022-12-07T15:54:06;-0.70;99.90
21316;DHT22;10817;55.820;13.030;2022-12-07T15:56:33;-0.70;99.90
21316;DHT22;10817;55.820;13.030;2022-12-07T15:59:01;-0.70;99.90
21316;DHT22;10817;55.820;13.030;2022-12-07T16:01:28;-0.80;99.90
21316;DHT22;10817;55.820;13.030;2022-12-07T16:03:57;-0.80;99.90
21316;DHT22;10817;55.820;13.030;2022-12-07T16:06:24;-0.80;99.90
21316;DHT22;10817;55.820;13.030;2022-12-07T16:08:52;-0.80;99.90
21316;DHT22;10817;55.820;13.030;2022-12-07T16:11:19;-0.80;99.90
21316;DHT22;10817;55.820;13.030;2022-12-07T16:13:46;-0.90;99.90